sensor_id;sensor_type;location;lat;lon;timestamp;temperature;humidity
23520;DHT22;11936;50.820;4.336;2022-12-29T00:02:18;11.80;99.90
23520;DHT22;11936;50.820;4.336;2022-12-29T00:04:43;11.80;99.90
23520;DHT22;11936;50.820;4.336;2022-12-29T00:07:09;11.80;99.90
23520;DHT22;11936;50.820;4.336;2022-12-29T00:09:35;11.90;99.90
23520;DHT22;11936;50.820;4.336;2022-12-29T00:12:02;12.00;99.90
23520;DHT22;11936;50.820;4.336;2022-12-29T00:14:28;12.00;99.90
23520;DHT22;11936;50.820;4.336;2022-12-29T00:17:12;12.10;99.90
23520;DHT22;11936;50.820;4.336;2022-12-29T00:19:38;12.10;99.90
23520;DHT22;11936;50.820;4.336;2022-12-29T00:22:23;12.10;99.90
23520;DHT22;11936;50.820;4.336;2022-12-29T00:25:09;12.10;99.90
23520;DHT22;11936;50.820;4.336;2022-12-29T00:27:54;12.10;99.90
23520;DHT22;11936;50.820;4.336;2022-12-29T00:30:38;12.10;99.90
23520;DHT22;11936;50.820;4.336;2022-12-29T00:33:29;12.20;99.90
23520;DHT22;11936;50.820;4.336;2022-12-29T00:36:18;12.20;99.90
23520;DHT22;11936;50.820;4.336;2022-12-29T00:38:51;12.20;99.90
23520;DHT22;11936;50.820;4.336;2022-12-29T00:41:35;12.10;99.90
23520;DHT22;11936;50.820;4.336;2022-12-29T00:44:20;12.20;99.90
23520;DHT22;11936;50.820;4.336;2022-12-29T00:46:45;12.20;99.90
23520;DHT22;11936;50.820;4.336;2022-12-29T00:49:12;12.20;99.90
23520;DHT22;11936;50.820;4.336;2022-12-29T00:52:02;12.20;99.90
23520;DHT22;11936;50.820;4.336;2022-12-29T00:54:30;12.30;99.90
23520;DHT22;11936;50.820;4.336;2022-12-29T00:56:56;12.40;99.90
23520;DHT22;11936;50.820;4.336;2022-12-29T00:59:22;12.40;99.90
23520;DHT22;11936;50.820;4.336;2022-12-29T01:01:50;12.20;99.90
23520;DHT22;11936;50.820;4.336;2022-12-29T01:04:16;12.20;99.90
23520;DHT22;11936;50.820;4.336;2022-12-29T01:06:41;12.20;99.90
23520;DHT22;11936;50.820;4.336;2022-12-29T01:09:08;12.20;99.90
23520;DHT22;11936;50.820;4.336;2022-12-29T01:11:53;12.20;99.90
23520;DHT22;11936;50.820;4.336;2022-12-29T01:14:20;12.20;99.90
23520;DHT22;11936;50.820;4.336;2022-12-29T01:16:46;12.20;99.90
23520;DHT22;11936;50.820;4.336;2022-12-29T01:19:12;12.10;99.90
23520;DHT22;11936;50.820;4.336;2022-12-29T01:21:37;12.20;99.90
23520;DHT22;11936;50.820;4.336;2022-12-29T01:24:03;12.00;99.90
23520;DHT22;11936;50.820;4.336;2022-12-29T01:26:29;12.00;99.90
23520;DHT22;11936;50.820;4.336;2022-12-29T01:28:54;12.00;99.90
23520;DHT22;11936;50.820;4.336;2022-12-29T01:31:21;12.00;99.90
23520;DHT22;11936;50.820;4.336;2022-12-29T01:33:46;11.80;99.90
23520;DHT22;11936;50.820;4.336;2022-12-29T01:36:14;11.60;99.90
23520;DHT22;11936;50.820;4.336;2022-12-29T01:38:40;11.70;99.90
23520;DHT22;11936;50.820;4.336;2022-12-29T01:41:07;11.70;99.90
23520;DHT22;11936;50.820;4.336;2022-12-29T01:46:11;11.80;99.90
23520;DHT22;11936;50.820;4.336;2022-12-29T01:48:39;11.80;99.90
23520;DHT22;11936;50.820;4.336;2022-12-29T01:51:06;11.80;99.90
23520;DHT22;11936;50.820;4.336;2022-12-29T01:53:33;11.70;99.90
23520;DHT22;11936;50.820;4.336;2022-12-29T01:56:04;11.70;99.90
23520;DHT22;11936;50.820;4.336;2022-12-29T01:58:35;11.60;99.90
23520;DHT22;11936;50.820;4.336;2022-12-29T02:01:03;11.70;99.90
23520;DHT22;11936;50.820;4.336;2022-12-29T02:03:30;11.60;99.90
23520;DHT22;11936;50.820;4.336;2022-12-29T02:05:59;11.60;99.90
23520;DHT22;11936;50.820;4.336;2022-12-29T02:08:29;11.50;99.90
23520;DHT22;11936;50.820;4.336;2022-12-29T02:10:56;11.60;99.90
23520;DHT22;11936;50.820;4.336;2022-12-29T02:13:26;11.40;99.90
23520;DHT22;11936;50.820;4.336;2022-12-29T02:16:30;11.40;99.90
23520;DHT22;11936;50.820;4.336;2022-12-29T02:27:55;11.00;99.90
23520;DHT22;11936;50.820;4.336;2022-12-29T02:33:32;11.00;99.90
23520;DHT22;11936;50.820;4.336;2022-12-29T02:41:34;10.90;99.90
23520;DHT22;11936;50.820;4.336;2022-12-29T02:44:12;10.90;99.90
23520;DHT22;11936;50.820;4.336;2022-12-29T02:47:14;10.90;99.90
23520;DHT22;11936;50.820;4.336;2022-12-29T02:50:09;10.90;99.90
23520;DHT22;11936;50.820;4.336;2022-12-29T02:52:50;10.90;99.90
23520;DHT22;11936;50.820;4.336;2022-12-29T02:55:16;11.00;99.90
23520;DHT22;11936;50.820;4.336;2022-12-29T02:57:42;11.00;99.90
23520;DHT22;11936;50.820;4.336;2022-12-29T03:00:11;10.90;99.90
23520;DHT22;11936;50.820;4.336;2022-12-29T03:11:19;10.80;99.90
23520;DHT22;11936;50.820;4.336;2022-12-29T03:14:23;10.60;99.90
23520;DHT22;11936;50.820;4.336;2022-12-29T03:19:51;10.60;99.90
23520;DHT22;11936;50.820;4.336;2022-12-29T03:22:21;10.60;99.90
23520;DHT22;11936;50.820;4.336;2022-12-29T03:25:20;10.50;99.90
23520;DHT22;11936;50.820;4.336;2022-12-29T03:27:52;10.60;99.90
23520;DHT22;11936;50.820;4.336;2022-12-29T03:30:18;10.70;99.90
23520;DHT22;11936;50.820;4.336;2022-12-29T03:32:50;10.70;99.90
23520;DHT22;11936;50.820;4.336;2022-12-29T03:35:20;10.80;99.90
23520;DHT22;11936;50.820;4.336;2022-12-29T03:37:55;10.80;99.90
23520;DHT22;11936;50.820;4.336;2022-12-29T03:40:25;10.90;99.90
23520;DHT22;11936;50.820;4.336;2022-12-29T03:42:53;10.80;99.90
23520;DHT22;11936;50.820;4.336;2022-12-29T03:45:18;10.70;99.90
23520;DHT22;11936;50.820;4.336;2022-12-29T03:47:44;10.70;99.90
23520;DHT22;11936;50.820;4.336;2022-12-29T03:50:12;10.70;99.90
23520;DHT22;11936;50.820;4.336;2022-12-29T03:52:38;10.80;99.90
23520;DHT22;11936;50.820;4.336;2022-12-29T03:55:04;10.90;99.90
23520;DHT22;11936;50.820;4.336;2022-12-29T03:57:29;10.80;99.90
23520;DHT22;11936;50.820;4.336;2022-12-29T03:59:55;10.80;99.90
23520;DHT22;11936;50.820;4.336;2022-12-29T04:02:20;10.90;99.90
23520;DHT22;11936;50.820;4.336;2022-12-29T04:04:46;11.00;99.90
23520;DHT22;11936;50.820;4.336;2022-12-29T04:07:12;11.00;99.90
23520;DHT22;11936;50.820;4.336;2022-12-29T04:09:37;10.90;99.90
23520;DHT22;11936;50.820;4.336;2022-12-29T04:12:03;11.00;99.90
23520;DHT22;11936;50.820;4.336;2022-12-29T04:14:29;10.80;99.90
23520;DHT22;11936;50.820;4.336;2022-12-29T04:16:54;10.90;99.90
23520;DHT22;11936;50.820;4.336;2022-12-29T04:19:20;10.90;99.90
23520;DHT22;11936;50.820;4.336;2022-12-29T04:21:46;10.80;99.90
23520;DHT22;11936;50.820;4.336;2022-12-29T04:24:12;10.80;99.90
23520;DHT22;11936;50.820;4.336;2022-12-29T04:26:38;10.80;99.90
23520;DHT22;11936;50.820;4.336;2022-12-29T04:29:04;10.80;99.90
23520;DHT22;11936;50.820;4.336;2022-12-29T04:31:30;10.70;99.90
23520;DHT22;11936;50.820;4.336;2022-12-29T04:33:55;10.70;99.90
23520;DHT22;11936;50.820;4.336;2022-12-29T04:36:22;10.70;99.90
23520;DHT22;11936;50.820;4.336;2022-12-29T04:38:48;10.70;99.90
23520;DHT22;11936;50.820;4.336;2022-12-29T04:41:14;10.70;99.90
23520;DHT22;11936;50.820;4.336;2022-12-29T04:43:39;10.70;99.90
23520;DHT22;11936;50.820;4.336;2022-12-29T04:46:05;10.80;99.90
23520;DHT22;11936;50.820;4.336;2022-12-29T04:48:30;10.90;99.90
23520;DHT22;11936;50.820;4.336;2022-12-29T04:50:56;10.90;99.90
23520;DHT22;11936;50.820;4.336;2022-12-29T04:53:22;10.90;99.90
23520;DHT22;11936;50.820;4.336;2022-12-29T04:55:52;10.90;99.90
23520;DHT22;11936;50.820;4.336;2022-12-29T04:58:18;11.10;99.90
23520;DHT22;11936;50.820;4.336;2022-12-29T05:00:44;11.10;99.90
23520;DHT22;11936;50.820;4.336;2022-12-29T05:03:10;11.20;99.90
23520;DHT22;11936;50.820;4.336;2022-12-29T05:05:36;11.20;99.90
23520;DHT22;11936;50.820;4.336;2022-12-29T05:08:01;11.10;99.90
23520;DHT22;11936;50.820;4.336;2022-12-29T05:10:27;11.10;99.90
23520;DHT22;11936;50.820;4.336;2022-12-29T05:12:52;11.10;99.90
23520;DHT22;11936;50.820;4.336;2022-12-29T05:15:18;11.20;99.90
23520;DHT22;11936;50.820;4.336;2022-12-29T05:17:43;11.20;99.90
23520;DHT22;11936;50.820;4.336;2022-12-29T05:20:09;11.10;99.90
23520;DHT22;11936;50.820;4.336;2022-12-29T05:22:35;11.10;99.90
23520;DHT22;11936;50.820;4.336;2022-12-29T05:25:01;11.10;99.90
23520;DHT22;11936;50.820;4.336;2022-12-29T05:27:27;11.20;99.90
23520;DHT22;11936;50.820;4.336;2022-12-29T05:29:52;11.20;99.90
23520;DHT22;11936;50.820;4.336;2022-12-29T05:32:18;11.20;99.90
23520;DHT22;11936;50.820;4.336;2022-12-29T05:34:44;11.20;99.90
23520;DHT22;11936;50.820;4.336;2022-12-29T05:37:09;11.20;99.90
23520;DHT22;11936;50.820;4.336;2022-12-29T05:39:35;11.20;99.90
23520;DHT22;11936;50.820;4.336;2022-12-29T05:42:00;11.20;99.90
23520;DHT22;11936;50.820;4.336;2022-12-29T05:44:26;11.10;99.90
23520;DHT22;11936;50.820;4.336;2022-12-29T05:46:52;11.20;99.90
23520;DHT22;11936;50.820;4.336;2022-12-29T05:49:17;11.20;99.90
23520;DHT22;11936;50.820;4.336;2022-12-29T05:51:43;11.40;99.90
23520;DHT22;11936;50.820;4.336;2022-12-29T05:54:08;11.30;99.90
23520;DHT22;11936;50.820;4.336;2022-12-29T05:56:34;11.30;99.90
23520;DHT22;11936;50.820;4.336;2022-12-29T05:58:59;11.20;99.90
23520;DHT22;11936;50.820;4.336;2022-12-29T06:01:25;11.10;99.90
23520;DHT22;11936;50.820;4.336;2022-12-29T06:03:51;11.10;99.90
23520;DHT22;11936;50.820;4.336;2022-12-29T06:06:16;11.10;99.90
23520;DHT22;11936;50.820;4.336;2022-12-29T06:08:42;11.00;99.90
23520;DHT22;11936;50.820;4.336;2022-12-29T06:11:07;11.10;99.90
23520;DHT22;11936;50.820;4.336;2022-12-29T06:13:33;11.10;99.90
23520;DHT22;11936;50.820;4.336;2022-12-29T06:15:59;11.20;99.90
23520;DHT22;11936;50.820;4.336;2022-12-29T06:18:24;11.20;99.90
23520;DHT22;11936;50.820;4.336;2022-12-29T06:20:50;11.10;99.90
23520;DHT22;11936;50.820;4.336;2022-12-29T06:23:16;11.20;99.90
23520;DHT22;11936;50.820;4.336;2022-12-29T06:25:43;11.10;99.90
23520;DHT22;11936;50.820;4.336;2022-12-29T06:28:09;11.20;99.90
23520;DHT22;11936;50.820;4.336;2022-12-29T06:30:36;11.20;99.90
23520;DHT22;11936;50.820;4.336;2022-12-29T06:33:01;11.20;99.90
23520;DHT22;11936;50.820;4.336;2022-12-29T06:35:27;11.20;99.90
23520;DHT22;11936;50.820;4.336;2022-12-29T06:37:53;11.20;99.90
23520;DHT22;11936;50.820;4.336;2022-12-29T06:40:18;11.30;99.90
23520;DHT22;11936;50.820;4.336;2022-12-29T06:42:44;11.40;99.90
23520;DHT22;11936;50.820;4.336;2022-12-29T06:45:10;11.30;99.90
23520;DHT22;11936;50.820;4.336;2022-12-29T06:47:35;11.30;99.90
23520;DHT22;11936;50.820;4.336;2022-12-29T06:50:02;11.20;99.90
23520;DHT22;11936;50.820;4.336;2022-12-29T06:52:28;11.30;99.90
23520;DHT22;11936;50.820;4.336;2022-12-29T06:54:54;11.20;99.90
23520;DHT22;11936;50.820;4.336;2022-12-29T06:57:20;11.20;99.90
23520;DHT22;11936;50.820;4.336;2022-12-29T06:59:46;11.10;99.90
23520;DHT22;11936;50.820;4.336;2022-12-29T07:02:12;11.10;99.90
23520;DHT22;11936;50.820;4.336;2022-12-29T07:04:40;11.10;99.90
23520;DHT22;11936;50.820;4.336;2022-12-29T07:07:05;11.10;99.90
23520;DHT22;11936;50.820;4.336;2022-12-29T07:09:31;11.20;99.90
23520;DHT22;11936;50.820;4.336;2022-12-29T07:11:56;11.10;99.90
23520;DHT22;11936;50.820;4.336;2022-12-29T07:14:22;11.10;99.90
23520;DHT22;11936;50.820;4.336;2022-12-29T07:16:48;11.20;99.90
23520;DHT22;11936;50.820;4.336;2022-12-29T07:19:13;11.20;99.90
23520;DHT22;11936;50.820;4.336;2022-12-29T07:21:39;11.30;99.90
23520;DHT22;11936;50.820;4.336;2022-12-29T07:24:05;11.30;99.90
23520;DHT22;11936;50.820;4.336;2022-12-29T07:26:30;11.30;99.90
23520;DHT22;11936;50.820;4.336;2022-12-29T07:28:56;11.20;99.90
23520;DHT22;11936;50.820;4.336;2022-12-29T07:31:22;11.20;99.90
23520;DHT22;11936;50.820;4.336;2022-12-29T07:33:48;11.30;99.90
23520;DHT22;11936;50.820;4.336;2022-12-29T07:36:15;11.20;99.90
23520;DHT22;11936;50.820;4.336;2022-12-29T07:38:42;11.20;99.90
23520;DHT22;11936;50.820;4.336;2022-12-29T07:41:08;11.20;99.90
23520;DHT22;11936;50.820;4.336;2022-12-29T07:43:33;11.50;99.90
23520;DHT22;11936;50.820;4.336;2022-12-29T07:45:59;11.70;99.90
23520;DHT22;11936;50.820;4.336;2022-12-29T07:48:25;12.00;99.90
23520;DHT22;11936;50.820;4.336;2022-12-29T07:50:51;11.80;99.90
23520;DHT22;11936;50.820;4.336;2022-12-29T07:53:17;11.70;99.90
23520;DHT22;11936;50.820;4.336;2022-12-29T07:55:42;11.50;99.90
23520;DHT22;11936;50.820;4.336;2022-12-29T07:58:08;11.40;99.90
23520;DHT22;11936;50.820;4.336;2022-12-29T08:00:33;11.30;99.90
23520;DHT22;11936;50.820;4.336;2022-12-29T08:02:59;11.30;99.90
23520;DHT22;11936;50.820;4.336;2022-12-29T08:05:25;11.20;99.90
23520;DHT22;11936;50.820;4.336;2022-12-29T08:07:50;11.10;99.90
23520;DHT22;11936;50.820;4.336;2022-12-29T08:10:16;11.10;99.90
23520;DHT22;11936;50.820;4.336;2022-12-29T08:12:42;11.10;99.90
23520;DHT22;11936;50.820;4.336;2022-12-29T08:15:09;11.10;99.90
23520;DHT22;11936;50.820;4.336;2022-12-29T08:17:35;11.20;99.90
23520;DHT22;11936;50.820;4.336;2022-12-29T08:20:01;11.20;99.90
23520;DHT22;11936;50.820;4.336;2022-12-29T08:22:27;11.20;99.90
23520;DHT22;11936;50.820;4.336;2022-12-29T08:24:53;11.20;99.90
23520;DHT22;11936;50.820;4.336;2022-12-29T08:27:18;11.30;99.90
23520;DHT22;11936;50.820;4.336;2022-12-29T08:29:44;11.20;99.90
23520;DHT22;11936;50.820;4.336;2022-12-29T08:32:10;11.20;99.90
23520;DHT22;11936;50.820;4.336;2022-12-29T08:34:36;11.10;99.90
23520;DHT22;11936;50.820;4.336;2022-12-29T08:37:02;11.00;99.90
23520;DHT22;11936;50.820;4.336;2022-12-29T08:39:27;11.10;99.90
23520;DHT22;11936;50.820;4.336;2022-12-29T08:41:53;11.00;99.90
23520;DHT22;11936;50.820;4.336;2022-12-29T08:44:19;11.10;99.90
23520;DHT22;11936;50.820;4.336;2022-12-29T08:46:45;11.20;99.90
23520;DHT22;11936;50.820;4.336;2022-12-29T08:49:10;11.20;99.90
23520;DHT22;11936;50.820;4.336;2022-12-29T08:51:36;11.20;99.90
23520;DHT22;11936;50.820;4.336;2022-12-29T08:54:02;11.20;99.90
23520;DHT22;11936;50.820;4.336;2022-12-29T08:56:27;11.20;99.90
23520;DHT22;11936;50.820;4.336;2022-12-29T08:58:53;11.10;99.90
23520;DHT22;11936;50.820;4.336;2022-12-29T09:01:19;11.30;99.90
23520;DHT22;11936;50.820;4.336;2022-12-29T09:03:46;11.30;99.90
23520;DHT22;11936;50.820;4.336;2022-12-29T09:06:12;11.20;99.90
23520;DHT22;11936;50.820;4.336;2022-12-29T09:08:38;11.20;99.90
23520;DHT22;11936;50.820;4.336;2022-12-29T09:13:33;11.20;99.90
23520;DHT22;11936;50.820;4.336;2022-12-29T09:15:59;11.10;99.90
23520;DHT22;11936;50.820;4.336;2022-12-29T09:18:25;11.10;99.90
23520;DHT22;11936;50.820;4.336;2022-12-29T09:20:59;11.20;99.90
23520;DHT22;11936;50.820;4.336;2022-12-29T09:23:26;11.10;99.90
23520;DHT22;11936;50.820;4.336;2022-12-29T09:25:52;11.10;99.90
23520;DHT22;11936;50.820;4.336;2022-12-29T09:28:18;11.20;99.90
23520;DHT22;11936;50.820;4.336;2022-12-29T09:30:44;11.10;99.90
23520;DHT22;11936;50.820;4.336;2022-12-29T09:33:10;11.10;99.90
23520;DHT22;11936;50.820;4.336;2022-12-29T09:35:35;11.10;99.90
23520;DHT22;11936;50.820;4.336;2022-12-29T09:38:02;11.10;99.90
23520;DHT22;11936;50.820;4.336;2022-12-29T09:40:30;11.00;99.90
23520;DHT22;11936;50.820;4.336;2022-12-29T09:48:36;11.10;99.90
23520;DHT22;11936;50.820;4.336;2022-12-29T09:51:08;11.20;99.90
23520;DHT22;11936;50.820;4.336;2022-12-29T09:53:44;11.20;99.90
23520;DHT22;11936;50.820;4.336;2022-12-29T09:56:16;11.20;99.90
23520;DHT22;11936;50.820;4.336;2022-12-29T09:58:48;11.30;99.90
23520;DHT22;11936;50.820;4.336;2022-12-29T10:03:55;11.40;99.90
23520;DHT22;11936;50.820;4.336;2022-12-29T10:19:55;11.40;99.90
23520;DHT22;11936;50.820;4.336;2022-12-29T10:25:37;11.40;99.90
23520;DHT22;11936;50.820;4.336;2022-12-29T10:28:10;11.40;99.90
23520;DHT22;11936;50.820;4.336;2022-12-29T10:30:40;11.40;99.90
23520;DHT22;11936;50.820;4.336;2022-12-29T10:33:10;11.30;99.90
23520;DHT22;11936;50.820;4.336;2022-12-29T10:35:39;11.30;99.90
23520;DHT22;11936;50.820;4.336;2022-12-29T10:38:28;11.20;99.90
23520;DHT22;11936;50.820;4.336;2022-12-29T10:41:08;11.10;99.90
23520;DHT22;11936;50.820;4.336;2022-12-29T10:43:52;11.10;99.90
23520;DHT22;11936;50.820;4.336;2022-12-29T10:46:21;11.20;99.90
23520;DHT22;11936;50.820;4.336;2022-12-29T10:48:48;11.30;99.90
23520;DHT22;11936;50.820;4.336;2022-12-29T10:51:26;11.40;99.90
23520;DHT22;11936;50.820;4.336;2022-12-29T10:57:08;11.50;99.90
23520;DHT22;11936;50.820;4.336;2022-12-29T10:59:36;11.60;99.90
23520;DHT22;11936;50.820;4.336;2022-12-29T11:07:30;11.90;99.90
23520;DHT22;11936;50.820;4.336;2022-12-29T11:10:16;11.70;99.90
23520;DHT22;11936;50.820;4.336;2022-12-29T11:12:55;11.70;99.90
23520;DHT22;11936;50.820;4.336;2022-12-29T11:15:21;11.80;99.90
23520;DHT22;11936;50.820;4.336;2022-12-29T11:17:59;11.90;99.90
23520;DHT22;11936;50.820;4.336;2022-12-29T11:20:34;11.90;99.90
23520;DHT22;11936;50.820;4.336;2022-12-29T11:23:01;11.90;99.90
23520;DHT22;11936;50.820;4.336;2022-12-29T11:25:27;11.80;99.90
23520;DHT22;11936;50.820;4.336;2022-12-29T11:28:03;11.80;99.90
23520;DHT22;11936;50.820;4.336;2022-12-29T11:30:37;11.80;99.90
23520;DHT22;11936;50.820;4.336;2022-12-29T11:33:03;11.80;99.90
23520;DHT22;11936;50.820;4.336;2022-12-29T11:35:43;11.70;99.90
23520;DHT22;11936;50.820;4.336;2022-12-29T11:38:24;11.70;99.90
23520;DHT22;11936;50.820;4.336;2022-12-29T11:40:51;11.70;99.90
23520;DHT22;11936;50.820;4.336;2022-12-29T11:43:31;11.60;99.90
23520;DHT22;11936;50.820;4.336;2022-12-29T11:45:59;11.70;99.90
23520;DHT22;11936;50.820;4.336;2022-12-29T11:48:31;11.70;99.90
23520;DHT22;11936;50.820;4.336;2022-12-29T11:50:58;11.50;99.90
23520;DHT22;11936;50.820;4.336;2022-12-29T11:53:28;11.50;99.90
23520;DHT22;11936;50.820;4.336;2022-12-29T11:56:04;11.50;99.90
23520;DHT22;11936;50.820;4.336;2022-12-29T11:58:36;11.50;99.90
23520;DHT22;11936;50.820;4.336;2022-12-29T12:01:18;11.40;99.90
23520;DHT22;11936;50.820;4.336;2022-12-29T12:04:08;11.40;99.90
23520;DHT22;11936;50.820;4.336;2022-12-29T12:06:43;11.40;99.90
23520;DHT22;11936;50.820;4.336;2022-12-29T12:09:29;11.50;99.90
23520;DHT22;11936;50.820;4.336;2022-12-29T12:12:00;11.50;99.90
23520;DHT22;11936;50.820;4.336;2022-12-29T12:14:40;11.50;99.90
23520;DHT22;11936;50.820;4.336;2022-12-29T12:17:19;11.40;99.90
23520;DHT22;11936;50.820;4.336;2022-12-29T12:22:37;11.20;99.90
23520;DHT22;11936;50.820;4.336;2022-12-29T12:25:19;11.10;99.90
23520;DHT22;11936;50.820;4.336;2022-12-29T12:28:21;11.10;99.90
23520;DHT22;11936;50.820;4.336;2022-12-29T12:30:55;11.20;99.90
23520;DHT22;11936;50.820;4.336;2022-12-29T12:33:32;11.30;99.90
23520;DHT22;11936;50.820;4.336;2022-12-29T12:39:06;11.40;99.90
23520;DHT22;11936;50.820;4.336;2022-12-29T12:41:56;11.60;99.90
23520;DHT22;11936;50.820;4.336;2022-12-29T12:44:29;11.60;99.90
23520;DHT22;11936;50.820;4.336;2022-12-29T13:01:11;11.30;99.90
23520;DHT22;11936;50.820;4.336;2022-12-29T13:06:42;11.30;99.90
23520;DHT22;11936;50.820;4.336;2022-12-29T13:09:28;11.30;99.90
23520;DHT22;11936;50.820;4.336;2022-12-29T13:17:25;11.30;99.90
23520;DHT22;11936;50.820;4.336;2022-12-29T13:20:10;11.30;99.90
23520;DHT22;11936;50.820;4.336;2022-12-29T13:27:59;11.30;99.90
23520;DHT22;11936;50.820;4.336;2022-12-29T13:33:15;11.40;99.90
23520;DHT22;11936;50.820;4.336;2022-12-29T13:36:22;11.50;99.90
23520;DHT22;11936;50.820;4.336;2022-12-29T13:41:43;11.40;99.90
23520;DHT22;11936;50.820;4.336;2022-12-29T13:47:00;11.40;99.90
23520;DHT22;11936;50.820;4.336;2022-12-29T13:49:27;11.40;99.90
23520;DHT22;11936;50.820;4.336;2022-12-29T13:51:59;11.40;99.90
23520;DHT22;11936;50.820;4.336;2022-12-29T13:57:45;11.40;99.90
23520;DHT22;11936;50.820;4.336;2022-12-29T14:00:16;11.40;99.90
23520;DHT22;11936;50.820;4.336;2022-12-29T14:07:44;11.30;99.90
23520;DHT22;11936;50.820;4.336;2022-12-29T14:15:38;11.20;99.90
23520;DHT22;11936;50.820;4.336;2022-12-29T14:18:20;11.30;99.90
23520;DHT22;11936;50.820;4.336;2022-12-29T14:20:57;11.40;99.90
23520;DHT22;11936;50.820;4.336;2022-12-29T14:23:52;11.40;99.90
23520;DHT22;11936;50.820;4.336;2022-12-29T14:28:53;11.50;99.90
23520;DHT22;11936;50.820;4.336;2022-12-29T14:36:40;11.60;99.90
23520;DHT22;11936;50.820;4.336;2022-12-29T14:39:39;11.50;99.90
23520;DHT22;11936;50.820;4.336;2022-12-29T14:44:44;11.40;99.90
23520;DHT22;11936;50.820;4.336;2022-12-29T14:47:37;11.50;99.90
23520;DHT22;11936;50.820;4.336;2022-12-29T14:50:13;11.40;99.90
23520;DHT22;11936;50.820;4.336;2022-12-29T14:57:45;11.20;99.90
23520;DHT22;11936;50.820;4.336;2022-12-29T15:03:36;10.90;99.90
23520;DHT22;11936;50.820;4.336;2022-12-29T15:06:08;10.70;99.90
23520;DHT22;11936;50.820;4.336;2022-12-29T15:09:09;10.40;99.90
23520;DHT22;11936;50.820;4.336;2022-12-29T15:14:02;10.00;99.90
23520;DHT22;11936;50.820;4.336;2022-12-29T15:16:32;10.00;99.90
23520;DHT22;11936;50.820;4.336;2022-12-29T15:18:59;9.70;99.90
23520;DHT22;11936;50.820;4.336;2022-12-29T15:21:32;9.70;99.90
23520;DHT22;11936;50.820;4.336;2022-12-29T15:23:58;9.70;99.90
23520;DHT22;11936;50.820;4.336;2022-12-29T15:26:37;9.60;99.90
23520;DHT22;11936;50.820;4.336;2022-12-29T15:29:03;9.70;99.90
23520;DHT22;11936;50.820;4.336;2022-12-29T15:31:29;9.70;99.90
23520;DHT22;11936;50.820;4.336;2022-12-29T15:34:02;9.70;99.90
23520;DHT22;11936;50.820;4.336;2022-12-29T15:36:29;9.70;99.90
23520;DHT22;11936;50.820;4.336;2022-12-29T15:39:23;9.70;99.90
23520;DHT22;11936;50.820;4.336;2022-12-29T15:44:42;9.80;99.90
23520;DHT22;11936;50.820;4.336;2022-12-29T15:47:18;10.00;99.90
23520;DHT22;11936;50.820;4.336;2022-12-29T15:49:47;10.00;99.90
23520;DHT22;11936;50.820;4.336;2022-12-29T15:52:18;10.00;99.90
23520;DHT22;11936;50.820;4.336;2022-12-29T15:54:45;10.00;99.90
23520;DHT22;11936;50.820;4.336;2022-12-29T15:57:25;10.00;99.90
23520;DHT22;11936;50.820;4.336;2022-12-29T15:59:51;9.90;99.90
23520;DHT22;11936;50.820;4.336;2022-12-29T16:02:17;9.90;99.90
23520;DHT22;11936;50.820;4.336;2022-12-29T16:04:43;9.90;99.90
23520;DHT22;11936;50.820;4.336;2022-12-29T16:07:25;9.90;99.90
23520;DHT22;11936;50.820;4.336;2022-12-29T16:09:55;9.90;99.90
23520;DHT22;11936;50.820;4.336;2022-12-29T16:12:24;9.90;99.90
23520;DHT22;11936;50.820;4.336;2022-12-29T16:14:56;9.90;99.90
23520;DHT22;11936;50.820;4.336;2022-12-29T16:17:25;9.90;99.90
23520;DHT22;11936;50.820;4.336;2022-12-29T16:20:19;10.00;99.90
23520;DHT22;11936;50.820;4.336;2022-12-29T16:22:48;10.00;99.90
23520;DHT22;11936;50.820;4.336;2022-12-29T16:25:40;9.90;99.90
23520;DHT22;11936;50.820;4.336;2022-12-29T16:28:21;9.90;99.90
23520;DHT22;11936;50.820;4.336;2022-12-29T16:31:06;9.80;99.90
23520;DHT22;11936;50.820;4.336;2022-12-29T16:33:54;9.90;99.90
23520;DHT22;11936;50.820;4.336;2022-12-29T16:36:29;9.90;99.90
23520;DHT22;11936;50.820;4.336;2022-12-29T16:39:18;10.00;99.90
23520;DHT22;11936;50.820;4.336;2022-12-29T16:41:47;10.00;99.90
23520;DHT22;11936;50.820;4.336;2022-12-29T16:44:23;9.90;99.90
23520;DHT22;11936;50.820;4.336;2022-12-29T16:49:42;10.00;99.90
23520;DHT22;11936;50.820;4.336;2022-12-29T16:52:22;10.10;99.90
23520;DHT22;11936;50.820;4.336;2022-12-29T16:54:58;10.10;99.90
23520;DHT22;11936;50.820;4.336;2022-12-29T16:57:35;10.20;99.90
23520;DHT22;11936;50.820;4.336;2022-12-29T17:00:05;10.30;99.90
23520;DHT22;11936;50.820;4.336;2022-12-29T17:02:32;10.30;99.90
23520;DHT22;11936;50.820;4.336;2022-12-29T17:04:59;10.20;99.90
23520;DHT22;11936;50.820;4.336;2022-12-29T17:07:26;10.10;99.90
23520;DHT22;11936;50.820;4.336;2022-12-29T17:09:54;10.00;99.90
23520;DHT22;11936;50.820;4.336;2022-12-29T17:12:30;9.90;99.90
23520;DHT22;11936;50.820;4.336;2022-12-29T17:15:23;9.70;99.90
23520;DHT22;11936;50.820;4.336;2022-12-29T17:17:48;9.80;99.90
23520;DHT22;11936;50.820;4.336;2022-12-29T17:20:17;9.70;99.90
23520;DHT22;11936;50.820;4.336;2022-12-29T17:22:47;9.60;99.90
23520;DHT22;11936;50.820;4.336;2022-12-29T17:25:14;9.60;99.90
23520;DHT22;11936;50.820;4.336;2022-12-29T17:30:17;9.60;99.90
23520;DHT22;11936;50.820;4.336;2022-12-29T17:32:46;9.60;99.90
23520;DHT22;11936;50.820;4.336;2022-12-29T17:35:15;9.80;99.90
23520;DHT22;11936;50.820;4.336;2022-12-29T17:37:41;9.80;99.90
23520;DHT22;11936;50.820;4.336;2022-12-29T17:40:14;9.80;99.90
23520;DHT22;11936;50.820;4.336;2022-12-29T17:42:45;9.90;99.90
23520;DHT22;11936;50.820;4.336;2022-12-29T17:45:29;9.90;99.90
23520;DHT22;11936;50.820;4.336;2022-12-29T17:47:55;9.70;99.90
23520;DHT22;11936;50.820;4.336;2022-12-29T17:50:26;9.70;99.90
23520;DHT22;11936;50.820;4.336;2022-12-29T17:52:53;9.80;99.90
23520;DHT22;11936;50.820;4.336;2022-12-29T17:55:20;10.00;99.90
23520;DHT22;11936;50.820;4.336;2022-12-29T17:57:46;9.80;99.90
23520;DHT22;11936;50.820;4.336;2022-12-29T18:00:20;9.70;99.90
23520;DHT22;11936;50.820;4.336;2022-12-29T18:02:47;9.90;99.90
23520;DHT22;11936;50.820;4.336;2022-12-29T18:05:24;10.20;99.90
23520;DHT22;11936;50.820;4.336;2022-12-29T18:07:51;10.00;99.90
23520;DHT22;11936;50.820;4.336;2022-12-29T18:10:19;9.70;99.90
23520;DHT22;11936;50.820;4.336;2022-12-29T18:12:47;9.60;99.90
23520;DHT22;11936;50.820;4.336;2022-12-29T18:15:25;9.60;99.90
23520;DHT22;11936;50.820;4.336;2022-12-29T18:20:28;9.60;99.90
23520;DHT22;11936;50.820;4.336;2022-12-29T18:22:54;9.60;99.90
23520;DHT22;11936;50.820;4.336;2022-12-29T18:25:26;9.50;99.90
23520;DHT22;11936;50.820;4.336;2022-12-29T18:27:53;9.70;99.90
23520;DHT22;11936;50.820;4.336;2022-12-29T18:30:19;9.60;99.90